sensor_id;sensor_type;location;lat;lon;timestamp;P1;durP1;ratioP1;P2;durP2;ratioP2
69410;SDS011;56604;48.652;9.194;2023-04-08T00:00:40;22.60;;;13.77;;
69410;SDS011;56604;48.652;9.194;2023-04-08T00:03:05;19.03;;;12.83;;
69410;SDS011;56604;48.652;9.194;2023-04-08T00:05:32;20.80;;;12.50;;
69410;SDS011;56604;48.652;9.194;2023-04-08T00:07:57;18.27;;;12.77;;
69410;SDS011;56604;48.652;9.194;2023-04-08T00:10:23;19.93;;;12.70;;
69410;SDS011;56604;48.652;9.194;2023-04-08T00:12:50;18.73;;;13.23;;
69410;SDS011;56604;48.652;9.194;2023-04-08T00:15:15;22.87;;;13.07;;
69410;SDS011;56604;48.652;9.194;2023-04-08T00:17:41;21.10;;;14.10;;
69410;SDS011;56604;48.652;9.194;2023-04-08T00:20:06;22.10;;;14.23;;
69410;SDS011;56604;48.652;9.194;2023-04-08T00:22:32;22.10;;;13.97;;
69410;SDS011;56604;48.652;9.194;2023-04-08T00:24:57;21.60;;;14.13;;
69410;SDS011;56604;48.652;9.194;2023-04-08T00:27:22;25.83;;;14.43;;
69410;SDS011;56604;48.652;9.194;2023-04-08T00:29:49;26.67;;;14.53;;
69410;SDS011;56604;48.652;9.194;2023-04-08T00:32:15;21.60;;;14.40;;
69410;SDS011;56604;48.652;9.194;2023-04-08T00:34:40;21.97;;;14.43;;
69410;SDS011;56604;48.652;9.194;2023-04-08T00:37:06;22.20;;;14.03;;
69410;SDS011;56604;48.652;9.194;2023-04-08T00:39:31;21.20;;;13.20;;
69410;SDS011;56604;48.652;9.194;2023-04-08T00:41:56;21.40;;;14.07;;
69410;SDS011;56604;48.652;9.194;2023-04-08T00:44:22;21.90;;;14.10;;
69410;SDS011;56604;48.652;9.194;2023-04-08T00:46:47;24.53;;;13.63;;
69410;SDS011;56604;48.652;9.194;2023-04-08T00:49:13;20.07;;;13.40;;
69410;SDS011;56604;48.652;9.194;2023-04-08T00:51:38;24.73;;;13.30;;
69410;SDS011;56604;48.652;9.194;2023-04-08T00:54:03;20.67;;;12.97;;
69410;SDS011;56604;48.652;9.194;2023-04-08T00:56:29;20.17;;;12.47;;
69410;SDS011;56604;48.652;9.194;2023-04-08T00:58:57;16.93;;;12.07;;
69410;SDS011;56604;48.652;9.194;2023-04-08T01:06:49;17.20;;;12.37;;
69410;SDS011;56604;48.652;9.194;2023-04-08T01:09:21;16.53;;;11.27;;
69410;SDS011;56604;48.652;9.194;2023-04-08T01:11:49;19.53;;;12.10;;
69410;SDS011;56604;48.652;9.194;2023-04-08T01:14:18;17.10;;;11.20;;
69410;SDS011;56604;48.652;9.194;2023-04-08T01:16:47;16.30;;;12.33;;
69410;SDS011;56604;48.652;9.194;2023-04-08T01:19:25;23.03;;;13.57;;
69410;SDS011;56604;48.652;9.194;2023-04-08T01:21:54;20.23;;;12.40;;
69410;SDS011;56604;48.652;9.194;2023-04-08T01:24:28;26.53;;;13.30;;
69410;SDS011;56604;48.652;9.194;2023-04-08T01:26:58;19.70;;;13.60;;
69410;SDS011;56604;48.652;9.194;2023-04-08T01:29:25;20.67;;;13.23;;
69410;SDS011;56604;48.652;9.194;2023-04-08T01:31:52;19.20;;;13.67;;
69410;SDS011;56604;48.652;9.194;2023-04-08T01:34:19;18.43;;;13.23;;
69410;SDS011;56604;48.652;9.194;2023-04-08T01:36:45;19.10;;;13.40;;
69410;SDS011;56604;48.652;9.194;2023-04-08T01:39:11;20.20;;;13.73;;
69410;SDS011;56604;48.652;9.194;2023-04-08T01:41:39;18.73;;;12.80;;
69410;SDS011;56604;48.652;9.194;2023-04-08T01:44:05;20.83;;;12.33;;
69410;SDS011;56604;48.652;9.194;2023-04-08T01:46:30;18.03;;;12.80;;
69410;SDS011;56604;48.652;9.194;2023-04-08T01:48:57;20.33;;;12.73;;
69410;SDS011;56604;48.652;9.194;2023-04-08T01:51:23;16.77;;;11.43;;
69410;SDS011;56604;48.652;9.194;2023-04-08T01:53:50;17.17;;;12.20;;
69410;SDS011;56604;48.652;9.194;2023-04-08T01:56:16;16.40;;;12.40;;
69410;SDS011;56604;48.652;9.194;2023-04-08T01:58:42;21.10;;;12.90;;
69410;SDS011;56604;48.652;9.194;2023-04-08T02:01:13;18.87;;;12.03;;
69410;SDS011;56604;48.652;9.194;2023-04-08T02:03:43;17.53;;;11.03;;
69410;SDS011;56604;48.652;9.194;2023-04-08T02:06:10;16.50;;;11.70;;
69410;SDS011;56604;48.652;9.194;2023-04-08T02:08:36;15.90;;;11.80;;
69410;SDS011;56604;48.652;9.194;2023-04-08T02:11:01;13.27;;;10.30;;
69410;SDS011;56604;48.652;9.194;2023-04-08T02:13:30;17.50;;;11.50;;
69410;SDS011;56604;48.652;9.194;2023-04-08T02:16:01;14.40;;;10.90;;
69410;SDS011;56604;48.652;9.194;2023-04-08T02:18:30;13.50;;;10.37;;
69410;SDS011;56604;48.652;9.194;2023-04-08T02:20:57;14.97;;;10.93;;
69410;SDS011;56604;48.652;9.194;2023-04-08T02:23:31;13.00;;;10.30;;
69410;SDS011;56604;48.652;9.194;2023-04-08T02:26:00;18.17;;;11.50;;
69410;SDS011;56604;48.652;9.194;2023-04-08T02:28:28;15.60;;;11.10;;
69410;SDS011;56604;48.652;9.194;2023-04-08T02:30:55;16.20;;;11.30;;
69410;SDS011;56604;48.652;9.194;2023-04-08T02:33:22;16.90;;;11.37;;
69410;SDS011;56604;48.652;9.194;2023-04-08T02:35:51;15.13;;;11.07;;
69410;SDS011;56604;48.652;9.194;2023-04-08T02:38:18;16.77;;;11.10;;
69410;SDS011;56604;48.652;9.194;2023-04-08T02:40:44;16.50;;;11.07;;
69410;SDS011;56604;48.652;9.194;2023-04-08T02:43:09;16.43;;;10.87;;
69410;SDS011;56604;48.652;9.194;2023-04-08T02:45:40;16.07;;;10.67;;
69410;SDS011;56604;48.652;9.194;2023-04-08T02:48:06;14.60;;;10.13;;
69410;SDS011;56604;48.652;9.194;2023-04-08T02:50:31;15.77;;;10.60;;
69410;SDS011;56604;48.652;9.194;2023-04-08T02:52:57;12.97;;;10.80;;
69410;SDS011;56604;48.652;9.194;2023-04-08T02:55:22;15.67;;;10.90;;
69410;SDS011;56604;48.652;9.194;2023-04-08T02:57:48;15.53;;;11.13;;
69410;SDS011;56604;48.652;9.194;2023-04-08T03:00:13;20.80;;;11.80;;
69410;SDS011;56604;48.652;9.194;2023-04-08T03:02:39;14.37;;;10.53;;
69410;SDS011;56604;48.652;9.194;2023-04-08T03:05:05;21.50;;;11.00;;
69410;SDS011;56604;48.652;9.194;2023-04-08T03:07:31;13.83;;;10.27;;
69410;SDS011;56604;48.652;9.194;2023-04-08T03:09:56;15.07;;;10.77;;
69410;SDS011;56604;48.652;9.194;2023-04-08T03:12:22;15.70;;;10.90;;
69410;SDS011;56604;48.652;9.194;2023-04-08T03:14:47;16.90;;;10.63;;
69410;SDS011;56604;48.652;9.194;2023-04-08T03:17:13;14.90;;;10.53;;
69410;SDS011;56604;48.652;9.194;2023-04-08T03:19:39;18.13;;;11.40;;
69410;SDS011;56604;48.652;9.194;2023-04-08T03:22:04;18.53;;;12.13;;
69410;SDS011;56604;48.652;9.194;2023-04-08T03:24:30;14.00;;;10.90;;
69410;SDS011;56604;48.652;9.194;2023-04-08T03:26:55;15.80;;;11.20;;
69410;SDS011;56604;48.652;9.194;2023-04-08T03:29:20;18.40;;;11.83;;
69410;SDS011;56604;48.652;9.194;2023-04-08T03:31:46;18.20;;;11.93;;
69410;SDS011;56604;48.652;9.194;2023-04-08T03:34:11;14.73;;;10.80;;
69410;SDS011;56604;48.652;9.194;2023-04-08T03:36:36;16.23;;;11.10;;
69410;SDS011;56604;48.652;9.194;2023-04-08T03:39:01;18.70;;;11.70;;
69410;SDS011;56604;48.652;9.194;2023-04-08T03:41:27;17.13;;;12.20;;
69410;SDS011;56604;48.652;9.194;2023-04-08T03:43:53;15.37;;;11.17;;
69410;SDS011;56604;48.652;9.194;2023-04-08T03:46:18;20.87;;;12.10;;
69410;SDS011;56604;48.652;9.194;2023-04-08T03:48:44;18.80;;;11.80;;
69410;SDS011;56604;48.652;9.194;2023-04-08T03:51:09;19.80;;;11.90;;
69410;SDS011;56604;48.652;9.194;2023-04-08T03:53:35;17.50;;;11.00;;
69410;SDS011;56604;48.652;9.194;2023-04-08T03:56:00;19.27;;;10.80;;
69410;SDS011;56604;48.652;9.194;2023-04-08T03:58:27;18.63;;;11.10;;
69410;SDS011;56604;48.652;9.194;2023-04-08T04:00:52;12.83;;;10.03;;
69410;SDS011;56604;48.652;9.194;2023-04-08T04:03:18;14.57;;;10.10;;
69410;SDS011;56604;48.652;9.194;2023-04-08T04:05:43;17.03;;;9.70;;
69410;SDS011;56604;48.652;9.194;2023-04-08T04:08:08;16.77;;;10.30;;
69410;SDS011;56604;48.652;9.194;2023-04-08T04:10:34;18.20;;;10.33;;
69410;SDS011;56604;48.652;9.194;2023-04-08T04:12:59;14.40;;;9.43;;
69410;SDS011;56604;48.652;9.194;2023-04-08T04:15:25;14.30;;;9.57;;
69410;SDS011;56604;48.652;9.194;2023-04-08T04:17:50;17.53;;;9.83;;
69410;SDS011;56604;48.652;9.194;2023-04-08T04:20:16;18.13;;;10.43;;
69410;SDS011;56604;48.652;9.194;2023-04-08T04:22:41;12.93;;;9.10;;
69410;SDS011;56604;48.652;9.194;2023-04-08T04:25:07;17.70;;;10.10;;
69410;SDS011;56604;48.652;9.194;2023-04-08T04:27:33;16.10;;;9.03;;
69410;SDS011;56604;48.652;9.194;2023-04-08T04:29:59;18.90;;;9.80;;
69410;SDS011;56604;48.652;9.194;2023-04-08T04:32:24;15.83;;;9.50;;
69410;SDS011;56604;48.652;9.194;2023-04-08T04:34:50;18.17;;;9.37;;
69410;SDS011;56604;48.652;9.194;2023-04-08T04:37:15;15.10;;;9.13;;
69410;SDS011;56604;48.652;9.194;2023-04-08T04:39:41;14.23;;;9.60;;
69410;SDS011;56604;48.652;9.194;2023-04-08T04:42:06;15.33;;;9.63;;
69410;SDS011;56604;48.652;9.194;2023-04-08T04:44:31;17.10;;;10.27;;
69410;SDS011;56604;48.652;9.194;2023-04-08T04:46:57;15.03;;;9.67;;
69410;SDS011;56604;48.652;9.194;2023-04-08T04:49:22;17.70;;;10.57;;
69410;SDS011;56604;48.652;9.194;2023-04-08T04:51:47;15.60;;;9.63;;
69410;SDS011;56604;48.652;9.194;2023-04-08T04:54:13;16.50;;;10.00;;
69410;SDS011;56604;48.652;9.194;2023-04-08T04:56:38;16.03;;;9.50;;
69410;SDS011;56604;48.652;9.194;2023-04-08T04:59:03;16.30;;;9.90;;
69410;SDS011;56604;48.652;9.194;2023-04-08T05:01:29;16.67;;;10.50;;
69410;SDS011;56604;48.652;9.194;2023-04-08T05:03:54;20.30;;;10.40;;
69410;SDS011;56604;48.652;9.194;2023-04-08T05:06:21;17.07;;;10.73;;
69410;SDS011;56604;48.652;9.194;2023-04-08T05:08:47;16.00;;;10.60;;
69410;SDS011;56604;48.652;9.194;2023-04-08T05:11:12;16.67;;;10.37;;
69410;SDS011;56604;48.652;9.194;2023-04-08T05:13:37;16.77;;;10.40;;
69410;SDS011;56604;48.652;9.194;2023-04-08T05:16:03;16.77;;;9.87;;
69410;SDS011;56604;48.652;9.194;2023-04-08T05:18:28;16.10;;;10.60;;
69410;SDS011;56604;48.652;9.194;2023-04-08T05:20:54;20.03;;;11.43;;
69410;SDS011;56604;48.652;9.194;2023-04-08T05:23:19;22.40;;;13.47;;
69410;SDS011;56604;48.652;9.194;2023-04-08T05:25:44;19.60;;;12.83;;
69410;SDS011;56604;48.652;9.194;2023-04-08T05:28:10;20.23;;;13.33;;
69410;SDS011;56604;48.652;9.194;2023-04-08T05:30:35;18.70;;;11.80;;
69410;SDS011;56604;48.652;9.194;2023-04-08T05:33:00;26.80;;;12.17;;
69410;SDS011;56604;48.652;9.194;2023-04-08T05:35:26;17.07;;;11.43;;
69410;SDS011;56604;48.652;9.194;2023-04-08T05:37:52;18.53;;;10.13;;
69410;SDS011;56604;48.652;9.194;2023-04-08T05:40:17;12.70;;;9.60;;
69410;SDS011;56604;48.652;9.194;2023-04-08T05:42:42;17.13;;;10.10;;
69410;SDS011;56604;48.652;9.194;2023-04-08T05:45:08;15.30;;;8.80;;
69410;SDS011;56604;48.652;9.194;2023-04-08T05:47:34;13.50;;;9.30;;
69410;SDS011;56604;48.652;9.194;2023-04-08T05:49:59;13.13;;;8.97;;
69410;SDS011;56604;48.652;9.194;2023-04-08T05:52:24;12.40;;;7.83;;
69410;SDS011;56604;48.652;9.194;2023-04-08T05:54:50;18.83;;;11.50;;
69410;SDS011;56604;48.652;9.194;2023-04-08T05:57:15;14.70;;;9.53;;
69410;SDS011;56604;48.652;9.194;2023-04-08T05:59:40;11.83;;;8.63;;
69410;SDS011;56604;48.652;9.194;2023-04-08T06:02:06;11.90;;;8.37;;
69410;SDS011;56604;48.652;9.194;2023-04-08T06:04:31;19.23;;;9.57;;
69410;SDS011;56604;48.652;9.194;2023-04-08T06:06:57;13.63;;;8.90;;
69410;SDS011;56604;48.652;9.194;2023-04-08T06:09:23;12.27;;;8.70;;
69410;SDS011;56604;48.652;9.194;2023-04-08T06:11:50;12.30;;;9.03;;
69410;SDS011;56604;48.652;9.194;2023-04-08T06:14:15;13.13;;;8.60;;
69410;SDS011;56604;48.652;9.194;2023-04-08T06:16:40;13.80;;;9.90;;
69410;SDS011;56604;48.652;9.194;2023-04-08T06:19:06;14.63;;;10.00;;
69410;SDS011;56604;48.652;9.194;2023-04-08T06:21:31;14.87;;;11.50;;
69410;SDS011;56604;48.652;9.194;2023-04-08T06:23:56;11.40;;;10.13;;
69410;SDS011;56604;48.652;9.194;2023-04-08T06:26:22;12.77;;;9.70;;
69410;SDS011;56604;48.652;9.194;2023-04-08T06:28:47;14.77;;;10.97;;
69410;SDS011;56604;48.652;9.194;2023-04-08T06:31:12;16.07;;;10.13;;
69410;SDS011;56604;48.652;9.194;2023-04-08T06:33:37;15.57;;;10.90;;
69410;SDS011;56604;48.652;9.194;2023-04-08T06:36:03;14.57;;;10.40;;
69410;SDS011;56604;48.652;9.194;2023-04-08T06:38:29;12.00;;;10.40;;
69410;SDS011;56604;48.652;9.194;2023-04-08T06:40:56;15.70;;;11.40;;
69410;SDS011;56604;48.652;9.194;2023-04-08T06:43:25;17.47;;;11.90;;
69410;SDS011;56604;48.652;9.194;2023-04-08T06:45:51;13.70;;;10.90;;
69410;SDS011;56604;48.652;9.194;2023-04-08T06:48:17;16.73;;;12.20;;
69410;SDS011;56604;48.652;9.194;2023-04-08T06:50:42;18.00;;;12.70;;
69410;SDS011;56604;48.652;9.194;2023-04-08T06:53:08;16.07;;;12.00;;
69410;SDS011;56604;48.652;9.194;2023-04-08T06:55:33;15.00;;;12.00;;
69410;SDS011;56604;48.652;9.194;2023-04-08T06:57:58;18.83;;;12.67;;
69410;SDS011;56604;48.652;9.194;2023-04-08T07:00:25;17.80;;;12.90;;
69410;SDS011;56604;48.652;9.194;2023-04-08T07:02:51;19.20;;;13.07;;
69410;SDS011;56604;48.652;9.194;2023-04-08T07:05:16;18.57;;;13.10;;
69410;SDS011;56604;48.652;9.194;2023-04-08T07:07:42;17.80;;;13.80;;
69410;SDS011;56604;48.652;9.194;2023-04-08T07:10:07;11.80;;;10.13;;
69410;SDS011;56604;48.652;9.194;2023-04-08T07:12:33;13.53;;;10.80;;
69410;SDS011;56604;48.652;9.194;2023-04-08T07:14:58;13.10;;;9.80;;
69410;SDS011;56604;48.652;9.194;2023-04-08T07:17:23;11.77;;;9.47;;
69410;SDS011;56604;48.652;9.194;2023-04-08T07:19:49;26.67;;;13.77;;
69410;SDS011;56604;48.652;9.194;2023-04-08T07:22:14;13.20;;;9.90;;
69410;SDS011;56604;48.652;9.194;2023-04-08T07:24:40;13.43;;;10.50;;
69410;SDS011;56604;48.652;9.194;2023-04-08T07:27:07;16.17;;;10.60;;
69410;SDS011;56604;48.652;9.194;2023-04-08T07:29:33;12.97;;;9.50;;
69410;SDS011;56604;48.652;9.194;2023-04-08T07:31:58;14.20;;;9.40;;
69410;SDS011;56604;48.652;9.194;2023-04-08T07:34:23;11.77;;;9.00;;
69410;SDS011;56604;48.652;9.194;2023-04-08T07:36:49;12.83;;;9.87;;
69410;SDS011;56604;48.652;9.194;2023-04-08T07:39:14;9.93;;;8.93;;
69410;SDS011;56604;48.652;9.194;2023-04-08T07:41:40;10.43;;;8.77;;
69410;SDS011;56604;48.652;9.194;2023-04-08T07:44:05;13.77;;;9.13;;
69410;SDS011;56604;48.652;9.194;2023-04-08T07:46:34;14.80;;;9.80;;
69410;SDS011;56604;48.652;9.194;2023-04-08T07:49:00;13.70;;;10.77;;
69410;SDS011;56604;48.652;9.194;2023-04-08T07:51:26;16.33;;;11.90;;
69410;SDS011;56604;48.652;9.194;2023-04-08T07:53:51;14.00;;;10.70;;
69410;SDS011;56604;48.652;9.194;2023-04-08T07:56:17;19.00;;;13.03;;
69410;SDS011;56604;48.652;9.194;2023-04-08T07:58:43;15.83;;;11.90;;
69410;SDS011;56604;48.652;9.194;2023-04-08T08:01:15;17.53;;;11.93;;
69410;SDS011;56604;48.652;9.194;2023-04-08T08:03:40;14.30;;;11.30;;
69410;SDS011;56604;48.652;9.194;2023-04-08T08:06:05;14.03;;;10.97;;
69410;SDS011;56604;48.652;9.194;2023-04-08T08:08:31;16.60;;;12.00;;
69410;SDS011;56604;48.652;9.194;2023-04-08T08:10:57;15.87;;;11.37;;
69410;SDS011;56604;48.652;9.194;2023-04-08T08:13:22;14.73;;;11.37;;
69410;SDS011;56604;48.652;9.194;2023-04-08T08:15:51;15.13;;;11.47;;
69410;SDS011;56604;48.652;9.194;2023-04-08T08:18:17;16.97;;;10.90;;
69410;SDS011;56604;48.652;9.194;2023-04-08T08:20:42;13.87;;;10.97;;
69410;SDS011;56604;48.652;9.194;2023-04-08T08:23:07;12.37;;;10.27;;
69410;SDS011;56604;48.652;9.194;2023-04-08T08:25:33;15.20;;;11.00;;
69410;SDS011;56604;48.652;9.194;2023-04-08T08:27:58;15.60;;;10.57;;
69410;SDS011;56604;48.652;9.194;2023-04-08T08:30:23;16.77;;;11.10;;
69410;SDS011;56604;48.652;9.194;2023-04-08T08:32:50;15.37;;;11.00;;
69410;SDS011;56604;48.652;9.194;2023-04-08T08:35:16;30.67;;;19.73;;
69410;SDS011;56604;48.652;9.194;2023-04-08T08:37:41;24.73;;;14.97;;
69410;SDS011;56604;48.652;9.194;2023-04-08T08:40:07;13.97;;;11.80;;
69410;SDS011;56604;48.652;9.194;2023-04-08T08:42:33;16.03;;;11.30;;
69410;SDS011;56604;48.652;9.194;2023-04-08T08:45:00;13.77;;;11.13;;
69410;SDS011;56604;48.652;9.194;2023-04-08T08:47:27;18.17;;;11.43;;
69410;SDS011;56604;48.652;9.194;2023-04-08T08:49:52;16.70;;;11.57;;
69410;SDS011;56604;48.652;9.194;2023-04-08T08:52:17;14.60;;;11.00;;
69410;SDS011;56604;48.652;9.194;2023-04-08T08:54:43;14.17;;;11.30;;
69410;SDS011;56604;48.652;9.194;2023-04-08T08:57:16;22.33;;;12.87;;
69410;SDS011;56604;48.652;9.194;2023-04-08T08:59:47;18.20;;;11.60;;
69410;SDS011;56604;48.652;9.194;2023-04-08T09:02:22;14.20;;;10.53;;
69410;SDS011;56604;48.652;9.194;2023-04-08T09:05:00;14.85;;;11.50;;
69410;SDS011;56604;48.652;9.194;2023-04-08T09:07:28;13.50;;;10.73;;
69410;SDS011;56604;48.652;9.194;2023-04-08T09:09:54;14.63;;;11.40;;
69410;SDS011;56604;48.652;9.194;2023-04-08T09:12:21;17.80;;;12.57;;
69410;SDS011;56604;48.652;9.194;2023-04-08T09:14:47;17.47;;;12.00;;
69410;SDS011;56604;48.652;9.194;2023-04-08T09:17:13;17.63;;;11.90;;
69410;SDS011;56604;48.652;9.194;2023-04-08T09:19:39;15.20;;;11.30;;
69410;SDS011;56604;48.652;9.194;2023-04-08T09:22:07;14.00;;;11.50;;
69410;SDS011;56604;48.652;9.194;2023-04-08T09:24:34;17.03;;;12.10;;
69410;SDS011;56604;48.652;9.194;2023-04-08T09:27:04;12.43;;;10.93;;
69410;SDS011;56604;48.652;9.194;2023-04-08T09:29:30;16.30;;;12.50;;
69410;SDS011;56604;48.652;9.194;2023-04-08T09:31:59;13.63;;;11.47;;
69410;SDS011;56604;48.652;9.194;2023-04-08T09:34:25;12.60;;;10.80;;
69410;SDS011;56604;48.652;9.194;2023-04-08T09:36:52;14.87;;;12.30;;
69410;SDS011;56604;48.652;9.194;2023-04-08T09:39:19;17.03;;;11.90;;
69410;SDS011;56604;48.652;9.194;2023-04-08T09:41:46;15.63;;;11.80;;
69410;SDS011;56604;48.652;9.194;2023-04-08T09:44:13;15.63;;;12.27;;
69410;SDS011;56604;48.652;9.194;2023-04-08T09:57:16;18.47;;;11.10;;
69410;SDS011;56604;48.652;9.194;2023-04-08T10:00:18;16.77;;;12.10;;
69410;SDS011;56604;48.652;9.194;2023-04-08T10:02:56;18.37;;;12.00;;
69410;SDS011;56604;48.652;9.194;2023-04-08T10:05:30;14.90;;;11.10;;
69410;SDS011;56604;48.652;9.194;2023-04-08T10:07:55;16.37;;;12.53;;
69410;SDS011;56604;48.652;9.194;2023-04-08T10:10:21;16.37;;;12.70;;
69410;SDS011;56604;48.652;9.194;2023-04-08T10:12:48;18.07;;;12.53;;
69410;SDS011;56604;48.652;9.194;2023-04-08T10:15:23;16.30;;;12.43;;
69410;SDS011;56604;48.652;9.194;2023-04-08T10:17:54;20.93;;;15.23;;
69410;SDS011;56604;48.652;9.194;2023-04-08T10:22:58;15.07;;;11.93;;
69410;SDS011;56604;48.652;9.194;2023-04-08T10:25:28;22.23;;;12.47;;
69410;SDS011;56604;48.652;9.194;2023-04-08T10:31:04;18.30;;;11.13;;
69410;SDS011;56604;48.652;9.194;2023-04-08T10:33:31;18.10;;;11.93;;
69410;SDS011;56604;48.652;9.194;2023-04-08T10:35:59;16.07;;;12.53;;
69410;SDS011;56604;48.652;9.194;2023-04-08T10:38:36;15.90;;;12.30;;
69410;SDS011;56604;48.652;9.194;2023-04-08T10:41:02;15.30;;;12.13;;
69410;SDS011;56604;48.652;9.194;2023-04-08T10:43:34;14.53;;;12.20;;
69410;SDS011;56604;48.652;9.194;2023-04-08T10:46:01;16.00;;;11.53;;
69410;SDS011;56604;48.652;9.194;2023-04-08T10:48:27;14.67;;;11.77;;
69410;SDS011;56604;48.652;9.194;2023-04-08T10:50:56;14.97;;;11.87;;
69410;SDS011;56604;48.652;9.194;2023-04-08T10:53:36;18.03;;;12.23;;
69410;SDS011;56604;48.652;9.194;2023-04-08T10:58:33;16.60;;;12.13;;
69410;SDS011;56604;48.652;9.194;2023-04-08T11:01:03;17.03;;;12.60;;
69410;SDS011;56604;48.652;9.194;2023-04-08T11:03:32;18.83;;;13.13;;
69410;SDS011;56604;48.652;9.194;2023-04-08T11:05:59;23.37;;;16.40;;
69410;SDS011;56604;48.652;9.194;2023-04-08T11:08:30;18.73;;;13.10;;
69410;SDS011;56604;48.652;9.194;2023-04-08T11:10:57;16.40;;;11.83;;
69410;SDS011;56604;48.652;9.194;2023-04-08T11:13:25;19.60;;;14.10;;
69410;SDS011;56604;48.652;9.194;2023-04-08T11:15:51;20.13;;;15.10;;
69410;SDS011;56604;48.652;9.194;2023-04-08T11:18:16;17.03;;;12.80;;
69410;SDS011;56604;48.652;9.194;2023-04-08T11:20:42;17.87;;;13.30;;
69410;SDS011;56604;48.652;9.194;2023-04-08T11:23:12;17.80;;;12.57;;
69410;SDS011;56604;48.652;9.194;2023-04-08T11:25:39;20.70;;;12.70;;
69410;SDS011;56604;48.652;9.194;2023-04-08T11:28:06;17.87;;;11.43;;
69410;SDS011;56604;48.652;9.194;2023-04-08T11:30:31;15.53;;;11.17;;
69410;SDS011;56604;48.652;9.194;2023-04-08T11:32:57;18.33;;;12.70;;
69410;SDS011;56604;48.652;9.194;2023-04-08T11:35:22;16.67;;;12.50;;
69410;SDS011;56604;48.652;9.194;2023-04-08T11:37:48;18.23;;;12.57;;
69410;SDS011;56604;48.652;9.194;2023-04-08T11:40:18;17.93;;;12.83;;
69410;SDS011;56604;48.652;9.194;2023-04-08T11:42:44;16.50;;;13.00;;
69410;SDS011;56604;48.652;9.194;2023-04-08T11:45:10;18.93;;;12.40;;
69410;SDS011;56604;48.652;9.194;2023-04-08T11:47:37;16.73;;;12.67;;
69410;SDS011;56604;48.652;9.194;2023-04-08T11:50:03;17.70;;;12.97;;
69410;SDS011;56604;48.652;9.194;2023-04-08T11:52:42;17.00;;;11.70;;
69410;SDS011;56604;48.652;9.194;2023-04-08T11:55:20;19.63;;;12.30;;
69410;SDS011;56604;48.652;9.194;2023-04-08T11:57:47;16.63;;;13.20;;
69410;SDS011;56604;48.652;9.194;2023-04-08T12:00:12;16.20;;;11.90;;
69410;SDS011;56604;48.652;9.194;2023-04-08T12:02:38;16.87;;;12.60;;
69410;SDS011;56604;48.652;9.194;2023-04-08T12:05:04;15.10;;;11.77;;
69410;SDS011;56604;48.652;9.194;2023-04-08T12:07:30;16.73;;;12.10;;
69410;SDS011;56604;48.652;9.194;2023-04-08T12:09:56;14.80;;;11.70;;
69410;SDS011;56604;48.652;9.194;2023-04-08T12:12:21;19.43;;;12.30;;
69410;SDS011;56604;48.652;9.194;2023-04-08T12:14:47;16.47;;;13.43;;
69410;SDS011;56604;48.652;9.194;2023-04-08T12:17:12;18.20;;;13.70;;
69410;SDS011;56604;48.652;9.194;2023-04-08T12:19:37;21.23;;;13.00;;
69410;SDS011;56604;48.652;9.194;2023-04-08T12:22:03;21.03;;;12.00;;
69410;SDS011;56604;48.652;9.194;2023-04-08T12:24:31;19.40;;;12.53;;
69410;SDS011;56604;48.652;9.194;2023-04-08T12:26:57;21.80;;;13.43;;
69410;SDS011;56604;48.652;9.194;2023-04-08T12:29:22;16.27;;;12.93;;
69410;SDS011;56604;48.652;9.194;2023-04-08T12:31:47;19.30;;;12.27;;
69410;SDS011;56604;48.652;9.194;2023-04-08T12:34:12;18.67;;;14.13;;
69410;SDS011;56604;48.652;9.194;2023-04-08T12:36:38;22.77;;;15.00;;
69410;SDS011;56604;48.652;9.194;2023-04-08T12:39:03;19.60;;;13.60;;
69410;SDS011;56604;48.652;9.194;2023-04-08T12:41:28;16.67;;;11.87;;
69410;SDS011;56604;48.652;9.194;2023-04-08T12:43:54;15.73;;;12.73;;
69410;SDS011;56604;48.652;9.194;2023-04-08T12:46:19;18.23;;;13.17;;
69410;SDS011;56604;48.652;9.194;2023-04-08T12:48:44;16.33;;;12.40;;
69410;SDS011;56604;48.652;9.194;2023-04-08T12:51:10;16.93;;;12.70;;
69410;SDS011;56604;48.652;9.194;2023-04-08T12:53:35;27.33;;;13.27;;
69410;SDS011;56604;48.652;9.194;2023-04-08T12:56:01;19.27;;;13.77;;
69410;SDS011;56604;48.652;9.194;2023-04-08T12:58:26;21.00;;;12.20;;
69410;SDS011;56604;48.652;9.194;2023-04-08T13:00:52;18.40;;;12.57;;
69410;SDS011;56604;48.652;9.194;2023-04-08T13:03:17;19.20;;;13.60;;
69410;SDS011;56604;48.652;9.194;2023-04-08T13:05:43;19.20;;;13.80;;
69410;SDS011;56604;48.652;9.194;2023-04-08T13:08:08;20.97;;;13.60;;
69410;SDS011;56604;48.652;9.194;2023-04-08T13:10:34;19.70;;;13.63;;
69410;SDS011;56604;48.652;9.194;2023-04-08T13:13:00;15.13;;;12.23;;
69410;SDS011;56604;48.652;9.194;2023-04-08T13:15:25;20.30;;;14.07;;
69410;SDS011;56604;48.652;9.194;2023-04-08T13:17:51;16.40;;;12.90;;
69410;SDS011;56604;48.652;9.194;2023-04-08T13:20:16;15.33;;;12.93;;
69410;SDS011;56604;48.652;9.194;2023-04-08T13:22:41;15.60;;;12.90;;
69410;SDS011;56604;48.652;9.194;2023-04-08T13:25:07;21.00;;;14.57;;
69410;SDS011;56604;48.652;9.194;2023-04-08T13:27:32;17.53;;;13.20;;
69410;SDS011;56604;48.652;9.194;2023-04-08T13:29:58;22.00;;;14.07;;
69410;SDS011;56604;48.652;9.194;2023-04-08T13:32:23;20.00;;;13.43;;
69410;SDS011;56604;48.652;9.194;2023-04-08T13:34:48;15.03;;;12.43;;
69410;SDS011;56604;48.652;9.194;2023-04-08T13:37:13;17.63;;;12.30;;
69410;SDS011;56604;48.652;9.194;2023-04-08T13:39:39;16.20;;;12.47;;
69410;SDS011;56604;48.652;9.194;2023-04-08T13:42:04;18.03;;;12.53;;
69410;SDS011;56604;48.652;9.194;2023-04-08T13:44:30;15.70;;;11.90;;
69410;SDS011;56604;48.652;9.194;2023-04-08T13:46:57;20.77;;;12.27;;
69410;SDS011;56604;48.652;9.194;2023-04-08T13:49:22;15.53;;;11.20;;
69410;SDS011;56604;48.652;9.194;2023-04-08T13:51:47;23.60;;;12.60;;
69410;SDS011;56604;48.652;9.194;2023-04-08T13:54:13;14.40;;;12.13;;
69410;SDS011;56604;48.652;9.194;2023-04-08T13:56:38;26.17;;;14.77;;
69410;SDS011;56604;48.652;9.194;2023-04-08T13:59:03;15.70;;;13.10;;
69410;SDS011;56604;48.652;9.194;2023-04-08T14:01:29;22.80;;;13.83;;
69410;SDS011;56604;48.652;9.194;2023-04-08T14:03:54;21.20;;;15.60;;
69410;SDS011;56604;48.652;9.194;2023-04-08T14:06:20;20.97;;;15.60;;
69410;SDS011;56604;48.652;9.194;2023-04-08T14:08:46;25.93;;;17.03;;
69410;SDS011;56604;48.652;9.194;2023-04-08T14:11:11;34.50;;;20.37;;
69410;SDS011;56604;48.652;9.194;2023-04-08T14:13:36;16.10;;;13.30;;
69410;SDS011;56604;48.652;9.194;2023-04-08T14:16:02;14.23;;;11.97;;
69410;SDS011;56604;48.652;9.194;2023-04-08T14:18:27;19.13;;;13.07;;
69410;SDS011;56604;48.652;9.194;2023-04-08T14:20:53;19.00;;;12.23;;
69410;SDS011;56604;48.652;9.194;2023-04-08T14:23:18;16.03;;;11.93;;
69410;SDS011;56604;48.652;9.194;2023-04-08T14:25:44;17.10;;;12.60;;
69410;SDS011;56604;48.652;9.194;2023-04-08T14:28:09;17.13;;;13.10;;
69410;SDS011;56604;48.652;9.194;2023-04-08T14:30:35;16.60;;;12.57;;
69410;SDS011;56604;48.652;9.194;2023-04-08T14:33:01;18.93;;;12.20;;
69410;SDS011;56604;48.652;9.194;2023-04-08T14:35:28;15.90;;;12.60;;
69410;SDS011;56604;48.652;9.194;2023-04-08T14:37:54;15.57;;;12.33;;
69410;SDS011;56604;48.652;9.194;2023-04-08T14:40:19;15.40;;;11.77;;
69410;SDS011;56604;48.652;9.194;2023-04-08T14:42:45;14.37;;;11.50;;